Time;durP1;ratioP1;P1;durP2;ratioP2;P2;SDS_P1;SDS_P2;PMS_P1;PMS_P2;Temp;Humidity;BMP_temperature;BMP_pressure;BME280_temperature;BME280_humidity;BME280_pressure;Samples;Min_cycle;Max_cycle;Signal;HPM_P1;HPM_P2
2021/08/09 00:01:35;;;;;;;3.93;2.00;;;;;;;15.60;80.02;100759.91;5112474;28;20170;-67
2021/08/09 00:04:03;;;;;;;4.70;1.80;;;;;;;15.44;81.35;100759.31;5113635;28;20669;-67
2021/08/09 00:06:28;;;;;;;4.83;2.13;;;;;;;15.44;81.16;100758.47;5113817;28;20172;-67
2021/08/09 00:08:53;;;;;;;2.13;1.40;;;;;;;15.39;81.08;100758.81;5113662;28;20182;-67
2021/08/09 00:11:18;;;;;;;5.57;1.70;;;;;;;15.41;80.63;100756.88;5112767;28;20189;-67
2021/08/09 00:13:44;;;;;;;6.00;2.40;;;;;;;15.49;79.34;100765.22;5113412;28;20235;-67
2021/08/09 00:16:09;;;;;;;3.33;2.10;;;;;;;15.64;78.58;100763.28;5113582;28;20641;-67
2021/08/09 00:18:34;;;;;;;3.83;1.50;;;;;;;15.59;78.11;100763.59;5113355;28;20646;-67
2021/08/09 00:21:00;;;;;;;4.50;1.83;;;;;;;15.52;78.57;100769.50;5113565;28;20177;-67
2021/08/09 00:23:25;;;;;;;3.60;1.80;;;;;;;15.35;78.86;100767.22;5111836;28;20183;-67
2021/08/09 00:25:50;;;;;;;3.30;1.80;;;;;;;15.46;78.35;100769.97;5113662;28;20563;-67
2021/08/09 00:28:16;;;;;;;4.63;1.73;;;;;;;15.53;77.73;100766.72;5113204;28;20166;-67
2021/08/09 00:30:41;;;;;;;4.87;1.67;;;;;;;15.46;77.24;100769.97;5111966;28;20224;-67
2021/08/09 00:33:06;;;;;;;2.03;1.30;;;;;;;15.50;78.02;100783.06;5112117;28;20537;-68
2021/08/09 00:35:32;;;;;;;2.80;1.63;;;;;;;15.48;77.42;100789.53;5113416;28;20205;-68
2021/08/09 00:37:57;;;;;;;7.50;1.73;;;;;;;15.45;78.18;100787.94;5113251;28;20162;-68
2021/08/09 00:40:22;;;;;;;4.80;1.47;;;;;;;15.30;77.85;100789.94;5112156;28;20166;-68
2021/08/09 00:42:47;;;;;;;3.63;1.43;;;;;;;15.47;76.25;100787.81;5112022;28;20220;-68
2021/08/09 00:45:13;;;;;;;1.57;1.27;;;;;;;15.43;77.29;100791.72;5112962;28;20677;-68
2021/08/09 00:47:38;;;;;;;3.87;1.50;;;;;;;15.32;77.22;100787.13;5111818;28;20170;-68
2021/08/09 00:50:04;;;;;;;2.17;1.47;;;;;;;15.36;77.63;100790.47;5094594;28;20193;-67
2021/08/09 00:52:29;;;;;;;4.60;1.47;;;;;;;15.24;78.34;100786.84;5114221;28;20222;-68
2021/08/09 00:54:54;;;;;;;2.97;1.50;;;;;;;15.11;78.95;100791.38;5112758;28;20193;-68
2021/08/09 00:57:20;;;;;;;3.50;1.30;;;;;;;15.16;78.99;100790.06;5115970;28;20165;-68
2021/08/09 00:59:45;;;;;;;3.37;1.50;;;;;;;15.08;79.09;100794.28;5117262;28;20181;-68
2021/08/09 01:02:10;;;;;;;3.27;1.40;;;;;;;15.15;78.92;100793.72;5115625;28;20180;-68
2021/08/09 01:04:36;;;;;;;4.13;1.47;;;;;;;15.04;79.09;100790.09;5115528;28;20189;-68
2021/08/09 01:07:01;;;;;;;3.50;1.30;;;;;;;14.99;79.02;100799.34;5116876;28;20166;-68
2021/08/09 01:09:33;;;;;;;3.47;1.47;;;;;;;15.01;79.20;100801.94;5115585;28;20177;-67
2021/08/09 01:12:14;;;;;;;4.30;1.57;;;;;;;15.00;79.30;100794.84;5116819;28;20642;-67
2021/08/09 01:14:53;;;;;;;5.77;1.67;;;;;;;15.01;79.14;100793.88;5116041;28;20557;-67
2021/08/09 01:17:19;;;;;;;1.40;1.20;;;;;;;14.98;79.44;100802.16;5115656;28;20170;-67
2021/08/09 01:20:00;;;;;;;7.47;1.63;;;;;;;14.85;80.08;100803.97;5115469;28;20485;-67
2021/08/09 01:22:32;;;;;;;3.80;1.43;;;;;;;14.86;79.91;100809.25;5115665;28;20154;-67
2021/08/09 01:25:09;;;;;;;4.63;1.53;;;;;;;14.98;79.46;100813.78;5115332;28;20209;-68
2021/08/09 01:27:37;;;;;;;3.33;1.53;;;;;;;14.87;80.13;100804.75;5116622;28;20165;-67
2021/08/09 01:30:08;;;;;;;3.97;1.43;;;;;;;14.93;79.74;100809.69;5116621;28;20192;-67
2021/08/09 01:32:36;;;;;;;3.27;1.57;;;;;;;14.85;80.75;100803.97;5116399;28;20268;-67
2021/08/09 01:35:02;;;;;;;4.07;1.57;;;;;;;14.98;80.04;100804.84;5114819;28;20213;-67
2021/08/09 01:37:28;;;;;;;7.23;1.50;;;;;;;15.04;79.92;100807.09;5115251;28;20181;-67
2021/08/09 01:39:53;;;;;;;5.73;1.40;;;;;;;14.82;80.64;100809.56;5115800;28;20174;-67
2021/08/09 01:42:19;;;;;;;4.03;1.43;;;;;;;15.01;80.20;100812.69;5116645;28;20629;-67
2021/08/09 01:44:46;;;;;;;3.17;1.27;;;;;;;15.04;79.21;100812.47;5116546;28;20192;-67
2021/08/09 01:47:11;;;;;;;4.07;1.30;;;;;;;14.89;80.11;100809.06;5119150;28;20173;-68
2021/08/09 01:49:37;;;;;;;2.23;1.30;;;;;;;14.95;80.06;100818.50;5121057;28;20193;-68
2021/08/09 01:52:03;;;;;;;3.87;1.40;;;;;;;14.83;79.70;100811.28;5121351;28;20177;-68
2021/08/09 01:54:29;;;;;;;2.03;1.37;;;;;;;14.91;80.27;100822.38;5118274;28;20221;-67
2021/08/09 01:56:54;;;;;;;3.33;1.57;;;;;;;14.86;80.43;100816.44;5115208;28;20173;-67
2021/08/09 01:59:20;;;;;;;2.57;1.40;;;;;;;14.70;80.50;100816.69;5116519;28;20173;-67
2021/08/09 02:01:46;;;;;;;3.00;1.57;;;;;;;14.68;80.53;100818.63;5115610;28;20178;-68
2021/08/09 02:04:11;;;;;;;4.87;1.60;;;;;;;14.65;80.34;100821.53;5116312;28;20288;-67
2021/08/09 02:06:36;;;;;;;1.80;1.50;;;;;;;14.56;81.10;100812.28;5097339;28;20260;-68
2021/08/09 02:09:02;;;;;;;4.47;1.80;;;;;;;14.55;81.23;100824.00;5114880;28;20185;-67
2021/08/09 02:11:40;;;;;;;4.47;2.87;;;;;;;14.55;81.46;100824.00;5114689;28;20201;-67
2021/08/09 02:14:06;;;;;;;5.03;2.63;;;;;;;14.62;81.25;100833.34;5114339;28;20264;-67
2021/08/09 02:16:36;;;;;;;4.00;2.20;;;;;;;14.47;81.83;100833.53;5114534;28;20174;-67
2021/08/09 02:19:03;;;;;;;3.57;2.03;;;;;;;14.42;82.19;100847.25;5097377;28;20178;-67
2021/08/09 02:21:31;;;;;;;4.87;1.70;;;;;;;14.45;81.45;100839.00;5114560;28;20173;-67
2021/08/09 02:24:24;;;;;;;3.67;1.40;;;;;;;14.25;82.37;100840.34;5114239;28;20166;-67
2021/08/09 02:26:55;;;;;;;3.00;1.70;;;;;;;14.30;82.39;100850.78;5110754;28;20580;-67
2021/08/09 02:29:33;;;;;;;4.27;1.53;;;;;;;14.22;82.89;100855.81;5114216;28;20197;-67
2021/08/09 02:32:01;;;;;;;2.87;1.60;;;;;;;14.22;83.16;100851.31;5114375;28;20633;-67
2021/08/09 02:34:29;;;;;;;3.30;1.77;;;;;;;14.26;83.48;100865.38;5113825;28;20201;-67
2021/08/09 02:36:54;;;;;;;5.20;1.97;;;;;;;14.31;83.16;100868.59;5097140;28;20172;-67
2021/08/09 02:39:19;;;;;;;3.70;1.60;;;;;;;14.19;83.87;100864.06;5115673;28;20197;-67
2021/08/09 02:41:45;;;;;;;2.23;1.50;;;;;;;14.18;84.17;100860.53;5113760;28;20166;-67
2021/08/09 02:44:12;;;;;;;2.63;1.33;;;;;;;14.16;83.91;100865.16;5113903;28;20193;-68
2021/08/09 02:46:38;;;;;;;4.70;1.77;;;;;;;14.14;84.54;100875.13;5113823;28;20169;-67
2021/08/09 02:49:03;;;;;;;9.03;1.67;;;;;;;14.16;84.56;100873.19;5113630;28;20177;-67
2021/08/09 02:51:31;;;;;;;2.27;1.60;;;;;;;14.26;84.44;100876.97;5114885;28;20185;-67
2021/08/09 02:53:56;;;;;;;5.93;1.37;;;;;;;14.17;84.32;100876.75;5115119;28;20204;-67
2021/08/09 02:56:24;;;;;;;2.57;1.60;;;;;;;14.20;84.35;100873.84;5113398;28;20245;-68
2021/08/09 02:58:51;;;;;;;2.80;1.70;;;;;;;14.28;83.43;100877.72;5113535;28;20165;-66
2021/08/09 03:01:18;;;;;;;4.47;1.60;;;;;;;14.09;84.68;100864.66;5113830;28;20157;-67
2021/08/09 03:03:45;;;;;;;4.97;1.83;;;;;;;14.08;85.13;100870.13;5114729;28;20170;-67
2021/08/09 03:06:11;;;;;;;3.83;1.50;;;;;;;14.01;85.26;100883.13;5114717;28;20170;-67
2021/08/09 03:08:37;;;;;;;2.43;1.30;;;;;;;13.99;85.25;100874.31;5115194;28;20248;-67
2021/08/09 03:11:02;;;;;;;2.93;1.77;;;;;;;14.09;85.05;100885.28;5113517;28;20189;-67
2021/08/09 03:13:27;;;;;;;2.30;1.80;;;;;;;14.09;85.19;100888.81;5113481;28;20161;-67
2021/08/09 03:15:53;;;;;;;2.03;1.40;;;;;;;14.03;85.41;100893.75;5114633;28;20684;-67
2021/08/09 03:18:18;;;;;;;3.60;1.50;;;;;;;13.83;86.62;100889.72;5113955;28;20247;-66
2021/08/09 03:20:44;;;;;;;2.87;1.30;;;;;;;13.99;86.29;100886.88;5114263;28;20215;-67
2021/08/09 03:23:10;;;;;;;3.07;1.60;;;;;;;13.85;86.45;100893.16;5114663;27;20169;-67
2021/08/09 03:25:37;;;;;;;3.27;1.80;;;;;;;13.99;85.80;100898.47;5114190;28;20193;-68
2021/08/09 03:28:03;;;;;;;3.80;1.60;;;;;;;13.96;86.37;100895.13;5114736;28;20180;-67
2021/08/09 03:30:28;;;;;;;2.00;1.40;;;;;;;14.01;86.14;100890.31;5113207;28;20554;-67
2021/08/09 03:32:54;;;;;;;2.13;1.60;;;;;;;13.86;87.07;100891.31;5114564;28;20165;-67
2021/08/09 03:35:19;;;;;;;3.43;1.57;;;;;;;13.89;87.16;100891.97;5113984;28;20250;-67
2021/08/09 03:37:45;;;;;;;2.37;1.37;;;;;;;13.88;87.17;100898.31;5114330;28;20174;-67
2021/08/09 03:40:10;;;;;;;3.33;1.40;;;;;;;13.94;87.07;100899.72;5113061;28;20238;-67
2021/08/09 03:42:36;;;;;;;3.77;1.30;;;;;;;13.87;87.28;100893.91;5114200;28;20184;-67
2021/08/09 03:45:01;;;;;;;3.30;1.43;;;;;;;13.90;87.50;100891.03;5113973;28;20195;-67
2021/08/09 03:47:26;;;;;;;2.83;1.40;;;;;;;13.88;87.43;100901.00;5112931;28;20180;-66
2021/08/09 03:49:52;;;;;;;4.83;1.50;;;;;;;13.86;87.55;100896.69;5113815;28;20169;-68
2021/08/09 03:52:17;;;;;;;3.73;1.50;;;;;;;13.84;87.85;100901.28;5113611;28;20173;-67
2021/08/09 03:54:42;;;;;;;1.43;1.23;;;;;;;13.67;89.07;100907.75;5113795;28;20220;-67
2021/08/09 03:57:08;;;;;;;2.13;1.53;;;;;;;13.71;88.27;100898.53;5112837;28;20222;-67
2021/08/09 03:59:33;;;;;;;2.67;1.40;;;;;;;13.69;88.82;100908.50;5113793;28;20165;-67
2021/08/09 04:01:58;;;;;;;3.93;1.53;;;;;;;13.66;89.08;100906.00;5113571;28;20217;-67
2021/08/09 04:04:24;;;;;;;3.63;1.67;;;;;;;13.61;88.83;100903.63;5113563;28;20193;-67
2021/08/09 04:06:49;;;;;;;2.87;1.57;;;;;;;13.55;88.70;100904.03;5113984;28;20169;-67
2021/08/09 04:09:14;;;;;;;3.57;1.47;;;;;;;13.75;86.49;100906.31;5095210;28;20212;-67
2021/08/09 04:11:40;;;;;;;2.50;1.30;;;;;;;13.77;86.96;100899.03;5112106;28;20201;-68
2021/08/09 04:14:05;;;;;;;2.20;1.30;;;;;;;13.72;87.38;100905.63;5113699;28;20181;-67
2021/08/09 04:16:31;;;;;;;5.03;1.73;;;;;;;13.73;87.52;100908.19;5112266;28;20230;-67
2021/08/09 04:18:56;;;;;;;2.57;1.23;;;;;;;13.79;86.82;100906.97;5113554;28;20244;-68
2021/08/09 04:21:22;;;;;;;4.27;1.57;;;;;;;13.70;87.33;100904.84;5113936;28;20169;-67
2021/08/09 04:23:48;;;;;;;6.07;1.40;;;;;;;13.78;86.73;100907.94;5113537;28;20169;-68
2021/08/09 04:26:15;;;;;;;4.53;1.70;;;;;;;13.62;87.34;100910.72;5112663;28;20549;-68
2021/08/09 04:28:40;;;;;;;5.47;1.87;;;;;;;13.66;87.33;100914.06;5113661;28;20166;-69
2021/08/09 04:31:05;;;;;;;3.53;1.60;;;;;;;13.61;87.04;100910.81;5113713;28;20201;-68
2021/08/09 04:33:30;;;;;;;4.63;1.50;;;;;;;13.76;87.10;100907.16;5113412;28;20181;-68
2021/08/09 04:35:56;;;;;;;5.10;1.50;;;;;;;13.70;87.26;100912.91;5120215;22;20235;-68
2021/08/09 04:38:21;;;;;;;2.13;1.37;;;;;;;13.82;87.45;100911.28;5093156;28;20188;-68
2021/08/09 04:40:47;;;;;;;2.80;1.30;;;;;;;14.07;86.44;100909.53;5074523;28;20167;-68
2021/08/09 04:43:12;;;;;;;4.47;1.70;;;;;;;14.09;85.77;100920.16;5092523;28;20653;-69
2021/08/09 04:45:37;;;;;;;2.13;1.47;;;;;;;14.26;85.33;100917.25;5074312;28;20239;-69
2021/08/09 04:48:03;;;;;;;2.50;1.23;;;;;;;14.42;84.40;100922.44;5074481;28;20642;-69
2021/08/09 04:50:28;;;;;;;3.13;1.57;;;;;;;14.45;84.32;100922.25;5058386;28;20240;-69
2021/08/09 04:52:53;;;;;;;5.17;1.40;;;;;;;14.54;83.80;100918.09;5057752;28;20166;-69
2021/08/09 04:55:18;;;;;;;3.47;1.60;;;;;;;14.75;83.14;100916.63;5074623;28;20186;-69
2021/08/09 04:57:44;;;;;;;3.70;1.60;;;;;;;14.83;82.53;100921.47;5057625;28;20193;-69
2021/08/09 05:00:10;;;;;;;3.60;1.40;;;;;;;15.22;80.72;100920.50;5074407;28;20220;-69
2021/08/09 05:02:37;;;;;;;3.27;1.33;;;;;;;15.32;80.85;100917.06;5092297;28;20209;-69
2021/08/09 05:05:02;;;;;;;3.00;1.20;;;;;;;15.10;81.18;100924.91;5092300;28;20182;-69
2021/08/09 05:07:27;;;;;;;3.03;1.77;;;;;;;15.03;81.72;100920.94;5092512;28;20594;-68
2021/08/09 05:09:53;;;;;;;1.93;1.20;;;;;;;15.01;81.63;100910.31;5092377;28;20201;-68
2021/08/09 05:12:18;;;;;;;4.33;1.47;;;;;;;14.75;81.73;100913.94;5074465;28;20664;-68
2021/08/09 05:14:43;;;;;;;9.03;1.53;;;;;;;14.97;80.66;100914.19;5073974;28;20202;-68
2021/08/09 05:17:08;;;;;;;3.03;1.40;;;;;;;14.68;82.48;100916.19;5092645;28;20183;-69
2021/08/09 05:19:34;;;;;;;4.00;1.57;;;;;;;14.80;82.46;100910.94;5092342;28;20590;-69
2021/08/09 05:21:59;;;;;;;5.57;1.50;;;;;;;14.69;82.52;100915.22;5092430;28;20638;-68
2021/08/09 05:24:25;;;;;;;2.20;1.30;;;;;;;14.59;83.37;100908.78;5074124;28;20198;-69
2021/08/09 05:26:50;;;;;;;4.07;1.43;;;;;;;14.95;81.50;100910.75;5092208;28;20181;-69
2021/08/09 05:29:15;;;;;;;7.23;2.43;;;;;;;14.59;83.03;100908.78;5092524;28;20179;-69
2021/08/09 05:31:41;;;;;;;2.77;1.60;;;;;;;14.85;81.96;100911.47;5074426;28;20194;-69
2021/08/09 05:34:06;;;;;;;4.33;1.33;;;;;;;15.02;81.58;100916.53;5092441;28;20259;-69
2021/08/09 05:36:31;;;;;;;2.80;1.33;;;;;;;15.23;80.71;100924.91;5074916;28;20186;-70
2021/08/09 05:39:00;;;;;;;5.23;1.80;;;;;;;14.78;82.04;100923.59;5093120;28;20186;-69
2021/08/09 05:41:25;;;;;;;7.97;1.70;;;;;;;14.92;82.04;100921.72;5074344;28;20178;-69
2021/08/09 05:43:51;;;;;;;4.00;1.50;;;;;;;14.89;82.00;100924.59;5077685;28;20181;-69
2021/08/09 05:46:16;;;;;;;4.70;1.40;;;;;;;14.99;82.45;100927.50;5095921;28;20198;-68
2021/08/09 05:48:41;;;;;;;2.47;1.33;;;;;;;15.34;80.74;100922.34;5077460;28;20255;-69
2021/08/09 05:51:06;;;;;;;5.73;1.30;;;;;;;15.52;80.77;100929.06;5077974;28;20224;-70
2021/08/09 05:53:32;;;;;;;4.43;1.90;;;;;;;15.31;81.17;100931.47;5096242;28;20174;-69
2021/08/09 05:55:57;;;;;;;2.37;1.20;;;;;;;15.33;81.03;100920.63;5095766;28;20245;-69
2021/08/09 05:58:22;;;;;;;3.30;1.50;;;;;;;15.17;81.68;100930.72;5077586;28;20184;-69
2021/08/09 06:00:48;;;;;;;3.23;1.70;;;;;;;15.34;81.32;100930.41;5077359;28;20170;-69
2021/08/09 06:03:18;;;;;;;3.80;1.83;;;;;;;15.25;81.40;100929.25;5077210;28;20542;-69
2021/08/09 06:05:43;;;;;;;4.17;1.50;;;;;;;15.16;81.73;100935.25;5061028;28;20217;-69
2021/08/09 06:08:08;;;;;;;4.60;1.70;;;;;;;15.26;81.31;100930.94;5078172;28;20174;-68
2021/08/09 06:10:33;;;;;;;5.33;1.60;;;;;;;15.22;81.38;100933.94;5096313;28;20684;-69
2021/08/09 06:12:59;;;;;;;2.60;1.57;;;;;;;15.24;81.98;100935.59;5095535;28;20178;-69
2021/08/09 06:15:24;;;;;;;3.10;1.60;;;;;;;15.30;81.38;100929.75;5077181;28;20194;-69
2021/08/09 06:17:49;;;;;;;3.63;1.40;;;;;;;15.42;81.29;100940.59;5095245;28;20175;-69
2021/08/09 06:20:15;;;;;;;2.93;1.50;;;;;;;15.53;80.38;100933.47;5077087;28;20177;-69
2021/08/09 06:22:40;;;;;;;2.50;1.40;;;;;;;15.38;79.98;100933.72;5076919;28;20600;-69
2021/08/09 06:25:06;;;;;;;4.93;1.70;;;;;;;15.39;80.40;100932.75;5095057;28;20198;-69
2021/08/09 06:27:31;;;;;;;3.73;1.37;;;;;;;15.42;80.84;100925.34;5095314;28;20181;-69
2021/08/09 06:29:56;;;;;;;5.37;2.07;;;;;;;15.36;80.44;100943.75;5076742;28;20190;-68
2021/08/09 06:32:23;;;;;;;11.80;7.30;;;;;;;15.71;79.44;100942.09;5094955;28;20211;-68
2021/08/09 06:34:49;;;;;;;7.43;1.80;;;;;;;15.49;80.21;100941.88;5094922;28;20255;-69
2021/08/09 06:37:16;;;;;;;3.07;1.70;;;;;;;15.74;79.41;100949.09;5094656;28;20189;-69
2021/08/09 06:39:41;;;;;;;4.90;1.67;;;;;;;15.59;79.22;100940.28;5094938;28;20181;-69
2021/08/09 06:42:06;;;;;;;5.03;1.73;;;;;;;15.52;78.83;100947.03;5076697;28;20175;-69
2021/08/09 06:44:32;;;;;;;3.33;1.63;;;;;;;15.83;78.40;100946.59;5094875;28;20243;-69
2021/08/09 06:46:58;;;;;;;5.03;1.60;;;;;;;15.92;78.08;100955.81;5094663;28;20174;-69
2021/08/09 06:49:24;;;;;;;2.30;1.50;;;;;;;15.99;77.89;100953.56;5076560;28;20205;-69
2021/08/09 06:51:49;;;;;;;4.23;1.63;;;;;;;15.84;79.18;100955.53;5094487;28;20194;-69
2021/08/09 06:54:14;;;;;;;5.17;1.70;;;;;;;15.75;78.21;100959.75;5093299;28;20182;-70
2021/08/09 06:56:40;;;;;;;3.37;1.60;;;;;;;16.01;78.95;100967.75;5094326;28;20539;-70
2021/08/09 06:59:05;;;;;;;3.53;1.70;;;;;;;16.16;78.84;100963.94;5094712;28;20178;-69
2021/08/09 07:01:30;;;;;;;3.67;1.57;;;;;;;16.41;77.84;100979.97;5094724;28;20526;-70
2021/08/09 07:03:56;;;;;;;2.83;1.53;;;;;;;16.62;76.58;100976.63;5094928;28;20174;-70
2021/08/09 07:06:23;;;;;;;4.83;1.50;;;;;;;16.77;76.62;100971.00;5094364;28;20189;-69
2021/08/09 07:08:51;;;;;;;4.20;1.60;;;;;;;16.83;76.60;100973.19;5076117;28;20265;-70
2021/08/09 07:11:17;;;;;;;3.60;1.80;;;;;;;16.88;75.60;100979.09;5094449;28;20201;-70
2021/08/09 07:13:42;;;;;;;3.90;1.80;;;;;;;17.01;74.62;100973.59;5094320;28;20170;-69
2021/08/09 07:16:07;;;;;;;4.13;1.50;;;;;;;17.00;75.15;100973.72;5075823;28;20244;-68
2021/08/09 07:18:33;;;;;;;5.20;1.70;;;;;;;17.55;71.49;100982.91;5075846;28;20182;-69
2021/08/09 07:20:59;;;;;;;3.43;1.47;;;;;;;17.50;73.04;100975.16;5075901;28;20166;-69
2021/08/09 07:23:25;;;;;;;5.47;1.90;;;;;;;16.77;74.77;100981.75;5076095;28;20178;-69
2021/08/09 07:25:50;;;;;;;4.07;1.67;;;;;;;16.72;76.03;100991.16;5075612;28;20751;-69
2021/08/09 07:28:15;;;;;;;3.80;1.63;;;;;;;17.26;73.51;100985.19;5093781;28;20182;-69
2021/08/09 07:30:41;;;;;;;3.03;1.53;;;;;;;17.25;74.05;100988.88;5075804;28;20198;-69
2021/08/09 07:33:06;;;;;;;2.60;1.60;;;;;;;17.06;74.84;100987.59;5093887;28;20208;-69
2021/08/09 07:35:31;;;;;;;5.23;3.20;;;;;;;16.91;74.94;100993.31;5075558;28;20201;-70
2021/08/09 07:37:57;;;;;;;9.43;4.73;;;;;;;16.91;75.05;100978.00;5075762;28;20193;-69
2021/08/09 07:40:22;;;;;;;5.13;2.07;;;;;;;17.15;73.42;100983.34;5075677;28;20662;-70
2021/08/09 07:42:48;;;;;;;4.07;1.50;;;;;;;17.17;74.04;100970.59;5093718;28;20547;-69
2021/08/09 07:45:13;;;;;;;4.87;1.90;;;;;;;17.28;73.32;100975.13;5075450;28;20358;-69
2021/08/09 07:47:38;;;;;;;3.83;1.60;;;;;;;17.62;73.05;100982.28;5093782;28;20198;-69
2021/08/09 07:50:04;;;;;;;4.63;1.93;;;;;;;17.71;71.72;100975.31;5075395;28;20181;-70
2021/08/09 07:52:29;;;;;;;10.83;1.97;;;;;;;17.94;71.51;100970.75;5075219;28;20190;-69
2021/08/09 07:54:55;;;;;;;3.50;1.83;;;;;;;17.73;72.51;100976.03;5093261;28;20246;-70
2021/08/09 07:57:21;;;;;;;6.20;2.00;;;;;;;18.26;70.29;100974.38;5093602;28;20638;-69
2021/08/09 07:59:46;;;;;;;3.87;1.73;;;;;;;17.90;71.06;100972.00;5093344;28;20584;-70
2021/08/09 08:02:12;;;;;;;4.60;1.60;;;;;;;17.83;72.12;100968.06;5093386;28;20206;-70
2021/08/09 08:04:38;;;;;;;3.27;1.60;;;;;;;18.09;71.08;100964.09;5074920;28;20285;-70
2021/08/09 08:07:03;;;;;;;6.07;2.03;;;;;;;18.18;70.25;100966.03;5093365;28;20264;-70
2021/08/09 08:09:28;;;;;;;4.47;2.00;;;;;;;17.72;70.34;100969.78;5075411;28;20189;-70
2021/08/09 08:11:54;;;;;;;8.43;1.60;;;;;;;18.21;68.79;100973.03;5093086;28;20204;-69
2021/08/09 08:14:19;;;;;;;7.03;1.70;;;;;;;18.41;67.12;100980.34;5058411;28;20178;-70
2021/08/09 08:16:46;;;;;;;4.83;1.60;;;;;;;18.67;67.42;100980.91;5093117;28;20178;-69
2021/08/09 08:19:11;;;;;;;4.53;1.80;;;;;;;18.55;67.80;100980.03;5075366;28;20227;-69
2021/08/09 08:21:36;;;;;;;3.80;1.60;;;;;;;19.02;66.79;100965.22;5093180;28;20178;-69
2021/08/09 08:24:02;;;;;;;5.37;1.70;;;;;;;19.21;64.08;100964.47;5075608;28;20170;-69
2021/08/09 08:26:27;;;;;;;4.63;1.40;;;;;;;19.39;62.72;100967.44;5092865;28;20217;-69
2021/08/09 08:28:52;;;;;;;4.27;1.50;;;;;;;19.48;62.54;100963.06;5074641;28;20182;-69
2021/08/09 08:31:18;;;;;;;6.30;2.17;;;;;;;19.44;63.12;100972.44;5092816;28;20248;-68
2021/08/09 08:33:43;;;;;;;7.43;1.80;;;;;;;18.96;64.11;100963.06;5074755;28;20297;-68
2021/08/09 08:36:08;;;;;;;6.50;3.00;;;;;;;19.17;63.76;100965.75;5074412;28;20221;-68
2021/08/09 08:38:35;;;;;;;4.23;1.60;;;;;;;19.55;61.97;100972.38;5075137;28;20181;-69
2021/08/09 08:41:06;;;;;;;12.33;1.57;;;;;;;19.04;64.56;100984.88;5092681;28;20685;-68
2021/08/09 08:43:32;;;;;;;5.47;1.43;;;;;;;19.76;62.84;100981.31;5074756;28;20235;-68
2021/08/09 08:45:59;;;;;;;4.33;1.30;;;;;;;20.17;62.38;100985.72;5074815;28;20221;-69
2021/08/09 08:48:25;;;;;;;4.90;1.67;;;;;;;20.23;61.40;100993.28;5092777;28;20180;-68
2021/08/09 08:50:51;;;;;;;3.87;1.27;;;;;;;20.63;60.56;100989.66;5074553;28;20202;-69
2021/08/09 08:53:17;;;;;;;4.23;1.40;;;;;;;20.15;60.43;100982.31;5075475;28;20198;-69
2021/08/09 08:55:43;;;;;;;3.27;1.50;;;;;;;20.69;58.86;100990.94;5058170;28;20191;-69
2021/08/09 08:58:09;;;;;;;5.20;1.40;;;;;;;20.52;58.67;100998.81;5074612;28;20248;-69
2021/08/09 09:00:36;;;;;;;4.53;1.70;;;;;;;19.51;61.16;100988.00;5074714;28;20189;-69
2021/08/09 09:03:04;;;;;;;4.37;1.40;;;;;;;20.11;60.33;100990.84;5074551;28;20182;-68
2021/08/09 09:05:32;;;;;;;5.13;1.50;;;;;;;19.63;60.85;100977.97;5092573;28;20670;-69
2021/08/09 09:07:59;;;;;;;5.00;1.70;;;;;;;19.25;61.78;100992.13;5074494;28;20170;-69
2021/08/09 09:10:32;;;;;;;2.20;1.20;;;;;;;20.25;59.87;100993.16;5092469;28;20225;-69
2021/08/09 09:13:14;;;;;;;6.63;1.80;;;;;;;20.35;59.86;100998.59;5074708;28;20174;-69
2021/08/09 09:16:05;;;;;;;2.87;1.30;;;;;;;20.23;61.40;100996.00;5092673;28;20194;-69
2021/08/09 09:18:55;;;;;;;5.70;1.60;;;;;;;19.94;62.09;100995.91;5077979;28;20154;-69
2021/08/09 09:21:32;;;;;;;2.70;1.00;;;;;;;20.38;60.17;101009.16;5078969;28;20170;-69
2021/08/09 09:24:20;;;;;;;4.40;2.10;;;;;;;20.06;60.65;101012.06;5061881;28;20684;-69
2021/08/09 09:26:52;;;;;;;11.73;1.50;;;;;;;19.82;61.22;101012.41;5078066;28;20216;-68
2021/08/09 09:29:18;;;;;;;7.43;3.10;;;;;;;19.74;61.30;101009.53;5078547;28;20611;-68
2021/08/09 09:31:45;;;;;;;4.93;1.63;;;;;;;20.25;60.58;101002.16;5077960;28;20201;-69
2021/08/09 09:34:12;;;;;;;4.93;1.73;;;;;;;20.16;60.17;101016.53;5095902;28;20174;-69
2021/08/09 09:36:55;;;;;;;3.70;1.57;;;;;;;20.17;60.50;101014.69;5061186;28;20615;-68
2021/08/09 09:39:27;;;;;;;3.73;1.13;;;;;;;20.50;60.17;101027.91;5078193;28;20244;-68
2021/08/09 09:41:53;;;;;;;5.97;1.67;;;;;;;20.45;59.67;101032.03;5095947;28;20167;-68
2021/08/09 09:44:25;;;;;;;4.47;1.33;;;;;;;20.71;59.03;101029.63;5078106;28;20357;-68
2021/08/09 09:46:51;;;;;;;5.60;1.43;;;;;;;20.21;60.26;101029.66;5060867;28;20174;-68
2021/08/09 09:49:33;;;;;;;4.53;1.50;;;;;;;20.35;59.53;101034.69;5095781;28;20254;-69
2021/08/09 09:51:59;;;;;;;6.60;1.40;;;;;;;20.11;59.79;101034.22;5095890;28;20551;-68
2021/08/09 09:54:25;;;;;;;9.83;1.50;;;;;;;19.28;62.83;101033.31;5077642;28;20224;-68
2021/08/09 09:56:51;;;;;;;4.00;1.27;;;;;;;19.56;62.34;101031.81;5077688;28;20185;-68
2021/08/09 09:59:16;;;;;;;7.23;1.57;;;;;;;19.92;61.16;101037.69;5077625;28;20560;-69
2021/08/09 10:01:42;;;;;;;5.43;1.50;;;;;;;19.40;62.62;101036.81;5077667;28;20181;-69
2021/08/09 10:04:07;;;;;;;4.70;1.53;;;;;;;19.76;61.11;101038.19;5078086;28;20175;-68
2021/08/09 10:06:35;;;;;;;6.77;1.40;;;;;;;19.57;62.30;101038.94;5077634;28;20178;-68
2021/08/09 10:09:00;;;;;;;8.10;3.70;;;;;;;20.15;59.86;101043.78;5077888;28;20185;-69
2021/08/09 10:11:26;;;;;;;5.23;2.00;;;;;;;20.53;60.03;101043.03;5078139;28;20566;-68
2021/08/09 10:13:51;;;;;;;6.13;1.37;;;;;;;20.20;61.10;101036.94;5077557;28;20177;-69
2021/08/09 10:16:17;;;;;;;6.30;1.70;;;;;;;20.46;60.47;101037.31;5077414;28;20209;-69
2021/08/09 10:18:51;;;;;;;4.63;1.70;;;;;;;20.15;59.61;101032.94;5077440;28;20248;-68
2021/08/09 10:21:18;;;;;;;6.07;1.57;;;;;;;20.36;58.90;101040.97;5077692;28;20162;-68
2021/08/09 10:23:47;;;;;;;6.20;1.67;;;;;;;19.79;61.15;101047.91;5077890;28;20228;-69
2021/08/09 10:26:21;;;;;;;5.00;1.60;;;;;;;20.04;60.91;101052.84;5077368;28;20201;-69
2021/08/09 10:28:53;;;;;;;4.50;1.30;;;;;;;20.05;61.07;101057.25;5095114;28;20519;-69
2021/08/09 10:31:29;;;;;;;5.30;1.80;;;;;;;20.04;61.04;101051.97;5095383;28;20204;-69
2021/08/09 10:33:55;;;;;;;3.13;1.30;;;;;;;19.40;61.42;101046.78;5060639;28;20279;-68
2021/08/09 10:36:21;;;;;;;2.37;1.13;;;;;;;20.18;59.20;101041.63;5132759;22;20692;-68
2021/08/09 10:38:52;;;;;;;5.03;1.50;;;;;;;19.70;59.12;101052.28;5114582;28;20614;-68
2021/08/09 10:41:33;;;;;;;12.43;1.83;;;;;;;20.43;57.91;101047.56;5115190;28;20215;-68
2021/08/09 10:44:04;;;;;;;3.63;1.30;;;;;;;20.53;58.94;101051.19;5114021;28;20192;-68
2021/08/09 10:46:41;;;;;;;2.93;1.60;;;;;;;21.35;56.23;101053.50;5115038;28;20189;-67
2021/08/09 10:49:07;;;;;;;3.73;1.30;;;;;;;21.51;55.31;101053.75;5115150;28;20636;-68
2021/08/09 10:51:51;;;;;;;5.73;1.30;;;;;;;21.55;55.46;101060.59;5113990;28;20201;-68
2021/08/09 10:54:27;;;;;;;3.50;1.47;;;;;;;21.25;55.39;101060.81;5113627;28;20586;-68
2021/08/09 10:56:53;;;;;;;5.37;1.47;;;;;;;21.66;55.38;101044.16;5096585;28;20664;-68
2021/08/09 10:59:37;;;;;;;4.80;1.33;;;;;;;21.68;55.40;101057.56;5115396;28;20181;-69
2021/08/09 11:02:03;;;;;;;3.93;1.37;;;;;;;21.66;54.62;101037.84;5115793;28;20169;-68
2021/08/09 11:04:28;;;;;;;5.30;1.80;;;;;;;22.20;53.37;101045.22;5114454;28;20213;-69
2021/08/09 11:06:54;;;;;;;4.43;1.33;;;;;;;23.12;51.90;101039.59;5114090;28;20182;-69
2021/08/09 11:09:31;;;;;;;3.40;1.60;;;;;;;24.62;48.91;101041.84;5113509;28;20234;-69
2021/08/09 11:12:26;;;;;;;5.57;1.40;;;;;;;22.93;52.73;101040.63;5114665;28;20201;-68
2021/08/09 11:15:00;;;;;;;4.07;1.60;;;;;;;22.41;53.91;101032.25;5113355;28;20193;-68
2021/08/09 11:17:38;;;;;;;3.60;1.60;;;;;;;23.06;52.68;101030.22;5114814;28;20180;-68
2021/08/09 11:20:13;;;;;;;2.80;1.07;;;;;;;22.75;52.23;101021.56;5114749;28;20640;-69
2021/08/09 11:22:43;;;;;;;4.10;1.37;;;;;;;26.22;45.03;101042.06;5115112;28;20572;-68
2021/08/09 11:25:25;;;;;;;3.10;1.40;;;;;;;25.83;45.76;101017.44;5096768;28;20777;-68